Time,TemperatureF,DewpointF,PressureIn,WindDirection,WindDirectionDegrees,WindSpeedMPH,WindSpeedGustMPH,Humidity,HourlyPrecipIn,Conditions,Clouds,dailyrainin,SoftwareType,DateUTC
2013-01-22 00:14:00,10.4,2.6,30.07,West,270,4.0,-999.0,70,-99.99,,,0.00,Acu-Link.com,2013-01-22 05:14:00,
2013-01-22 00:29:00,10.4,2.9,30.07,West,270,2.7,-999.0,71,-99.99,,,0.00,Acu-Link.com,2013-01-22 05:29:00,
2013-01-22 00:45:00,10.4,4.1,30.07,WSW,247,3.1,-999.0,75,-99.99,,,0.00,Acu-Link.com,2013-01-22 05:45:00,
2013-01-22 01:00:00,10.4,4.6,30.07,SW,225,5.1,-999.0,77,-99.99,,,0.00,Acu-Link.com,2013-01-22 06:00:00,
2013-01-22 01:15:00,10.4,5.2,30.07,SW,225,3.6,-999.0,79,-99.99,,,0.00,Acu-Link.com,2013-01-22 06:15:00,
2013-01-22 01:30:00,10.4,4.9,30.07,SW,225,4.7,-999.0,78,-99.99,,,0.00,Acu-Link.com,2013-01-22 06:30:00,
2013-01-22 01:45:00,8.6,1.8,30.07,North,0,4.7,-999.0,73,-99.99,,,0.00,Acu-Link.com,2013-01-22 06:45:00,
2013-01-22 02:01:00,8.6,0.9,30.08,SW,225,9.2,-999.0,70,-99.99,,,0.00,Acu-Link.com,2013-01-22 07:01:00,
2013-01-22 02:16:00,8.6,0.9,30.09,WSW,247,2.0,-999.0,70,-99.99,,,0.00,Acu-Link.com,2013-01-22 07:16:00,
2013-01-22 02:31:00,8.6,0.5,30.09,SW,225,3.6,-999.0,69,-99.99,,,0.00,Acu-Link.com,2013-01-22 07:31:00,
2013-01-22 02:47:00,8.6,0.9,30.09,West,270,2.0,-999.0,70,-99.99,,,0.00,Acu-Link.com,2013-01-22 07:47:00,
2013-01-22 03:02:00,8.6,0.9,30.09,SW,225,2.7,-999.0,70,-99.99,,,0.00,Acu-Link.com,2013-01-22 08:02:00,
2013-01-22 03:17:00,8.6,0.9,30.10,WNW,292,5.6,-999.0,70,-99.99,,,0.00,Acu-Link.com,2013-01-22 08:17:00,
2013-01-22 03:33:00,8.6,0.9,30.10,ESE,112,4.7,-999.0,70,-99.99,,,0.00,Acu-Link.com,2013-01-22 08:33:00,
2013-01-22 03:48:00,8.6,1.2,30.10,South,180,0.0,-999.0,71,-99.99,,,0.00,Acu-Link.com,2013-01-22 08:48:00,
2013-01-22 04:15:00,8.6,1.5,30.10,NNW,337,2.7,-999.0,72,-99.99,,,0.00,Acu-Link.com,2013-01-22 09:15:00,
2013-01-22 04:30:00,8.6,1.2,30.10,WSW,247,4.0,-999.0,71,-99.99,,,0.00,Acu-Link.com,2013-01-22 09:30:00,
2013-01-22 04:45:00,8.6,1.2,30.11,SW,225,6.3,-999.0,71,-99.99,,,0.00,Acu-Link.com,2013-01-22 09:45:00,
2013-01-22 05:16:00,8.6,3.7,30.12,WSW,247,3.6,-999.0,80,-99.99,,,0.00,Acu-Link.com,2013-01-22 10:16:00,
2013-01-22 05:31:00,8.6,4.5,30.13,SE,135,3.6,-999.0,83,-99.99,,,0.00,Acu-Link.com,2013-01-22 10:31:00,
2013-01-22 05:46:00,8.6,4.5,30.13,West,270,6.3,-999.0,83,-99.99,,,0.00,Acu-Link.com,2013-01-22 10:46:00,
2013-01-22 06:01:00,8.6,4.5,30.14,SSW,202,3.1,-999.0,83,-99.99,,,0.00,Acu-Link.com,2013-01-22 11:01:00,
2013-01-22 06:16:00,8.6,4.5,30.14,NW,315,4.7,-999.0,83,-99.99,,,0.00,Acu-Link.com,2013-01-22 11:16:00,
2013-01-22 06:31:00,8.6,4.5,30.15,WSW,247,3.1,-999.0,83,-99.99,,,0.00,Acu-Link.com,2013-01-22 11:31:00,
2013-01-22 06:47:00,8.6,4.5,30.16,West,270,6.3,-999.0,83,-99.99,,,0.00,Acu-Link.com,2013-01-22 11:47:00,
2013-01-22 07:02:00,8.6,4.5,30.16,WNW,292,5.6,-999.0,83,-99.99,,,0.00,Acu-Link.com,2013-01-22 12:02:00,
2013-01-22 07:17:00,8.6,4.5,30.17,WNW,292,3.6,-999.0,83,-99.99,,,0.00,Acu-Link.com,2013-01-22 12:17:00,
2013-01-22 07:33:00,8.6,4.5,30.17,West,270,2.7,-999.0,83,-99.99,,,0.00,Acu-Link.com,2013-01-22 12:33:00,
2013-01-22 07:48:00,8.6,4.5,30.18,WNW,292,5.1,-999.0,83,-99.99,,,0.00,Acu-Link.com,2013-01-22 12:48:00,
2013-01-22 08:19:00,8.6,4.5,30.19,SW,225,1.6,-999.0,83,-99.99,,,0.00,Acu-Link.com,2013-01-22 13:19:00,
2013-01-22 08:34:00,8.6,4.3,30.20,WNW,292,4.0,-999.0,82,-99.99,,,0.00,Acu-Link.com,2013-01-22 13:34:00,
2013-01-22 08:49:00,8.6,4.0,30.21,WNW,292,4.0,-999.0,81,-99.99,,,0.00,Acu-Link.com,2013-01-22 13:49:00,
2013-01-22 09:04:00,8.6,3.4,30.22,NW,315,5.1,-999.0,79,-99.99,,,0.00,Acu-Link.com,2013-01-22 14:04:00,
2013-01-22 09:20:00,8.6,3.2,30.22,NNW,337,3.6,-999.0,78,-99.99,,,0.00,Acu-Link.com,2013-01-22 14:20:00,
2013-01-22 09:35:00,10.4,4.1,30.23,WNW,292,4.7,-999.0,75,-99.99,,,0.00,Acu-Link.com,2013-01-22 14:35:00,
2013-01-22 09:50:00,10.4,3.8,30.23,SSE,157,1.6,-999.0,74,-99.99,,,0.00,Acu-Link.com,2013-01-22 14:50:00,
2013-01-22 10:06:00,10.4,4.1,30.24,NW,315,8.3,-999.0,75,-99.99,,,0.00,Acu-Link.com,2013-01-22 15:06:00,
2013-01-22 10:36:00,10.4,4.1,30.25,West,270,4.0,-999.0,75,-99.99,,,0.00,Acu-Link.com,2013-01-22 15:36:00,
2013-01-22 10:52:00,10.4,3.5,30.25,West,270,5.1,-999.0,73,-99.99,,,0.00,Acu-Link.com,2013-01-22 15:52:00,
2013-01-22 11:07:00,10.4,2.9,30.26,WNW,292,5.6,-999.0,71,-99.99,,,0.00,Acu-Link.com,2013-01-22 16:07:00,
2013-01-22 11:22:00,12.2,4.3,30.25,WNW,292,3.1,-999.0,70,-99.99,,,0.00,Acu-Link.com,2013-01-22 16:22:00,
2013-01-22 11:38:00,12.2,3.0,30.25,WNW,292,7.2,-999.0,66,-99.99,,,0.00,Acu-Link.com,2013-01-22 16:38:00,
2013-01-22 11:53:00,12.2,3.0,30.25,NW,315,3.1,-999.0,66,-99.99,,,0.00,Acu-Link.com,2013-01-22 16:53:00,
2013-01-22 12:23:00,12.2,1.4,30.24,NNW,337,8.7,-999.0,61,-99.99,,,0.00,Acu-Link.com,2013-01-22 17:23:00,
2013-01-22 12:38:00,12.2,0.6,30.23,NNW,337,4.0,-999.0,59,-99.99,,,0.00,Acu-Link.com,2013-01-22 17:38:00,
2013-01-22 12:54:00,10.4,-0.7,30.23,West,270,5.6,-999.0,60,-99.99,,,0.00,Acu-Link.com,2013-01-22 17:54:00,
2013-01-22 13:09:00,14.0,1.2,30.23,West,270,4.0,-999.0,56,-99.99,,,0.00,Acu-Link.com,2013-01-22 18:09:00,
2013-01-22 13:24:00,12.2,1.4,30.22,West,270,4.0,-999.0,61,-99.99,,,0.00,Acu-Link.com,2013-01-22 18:24:00,
2013-01-22 13:40:00,14.0,0.5,30.21,WNW,292,7.8,-999.0,54,-99.99,,,0.00,Acu-Link.com,2013-01-22 18:40:00,
2013-01-22 13:55:00,12.2,-0.1,30.21,WSW,247,4.0,-999.0,57,-99.99,,,0.00,Acu-Link.com,2013-01-22 18:55:00,
2013-01-22 14:10:00,12.2,-0.1,30.21,West,270,6.3,-999.0,57,-99.99,,,0.00,Acu-Link.com,2013-01-22 19:10:00,
2013-01-22 14:26:00,12.2,0.6,30.21,West,270,5.6,-999.0,59,-99.99,,,0.00,Acu-Link.com,2013-01-22 19:26:00,
2013-01-22 14:56:00,10.4,-2.5,30.22,WSW,247,8.3,-999.0,55,-99.99,,,0.00,Acu-Link.com,2013-01-22 19:56:00,
2013-01-22 15:11:00,14.0,0.1,30.22,West,270,2.7,-999.0,53,-99.99,,,0.00,Acu-Link.com,2013-01-22 20:11:00,
2013-01-22 15:27:00,12.2,-0.5,30.22,NW,315,4.7,-999.0,56,-99.99,,,0.00,Acu-Link.com,2013-01-22 20:27:00,
2013-01-22 15:42:00,14.0,1.2,30.23,West,270,6.3,-999.0,56,-99.99,,,0.00,Acu-Link.com,2013-01-22 20:42:00,
2013-01-22 15:57:00,12.2,-0.5,30.23,West,270,2.7,-999.0,56,-99.99,,,0.00,Acu-Link.com,2013-01-22 20:57:00,
2013-01-22 16:13:00,12.2,0.6,30.23,WNW,292,3.1,-999.0,59,-99.99,,,0.00,Acu-Link.com,2013-01-22 21:13:00,
2013-01-22 16:28:00,10.4,0.7,30.23,WNW,292,7.2,-999.0,64,-99.99,,,0.00,Acu-Link.com,2013-01-22 21:28:00,
2013-01-22 16:43:00,10.4,1.0,30.23,NW,315,4.0,-999.0,65,-99.99,,,0.00,Acu-Link.com,2013-01-22 21:43:00,
2013-01-22 16:58:00,10.4,0.7,30.23,SW,225,3.6,-999.0,64,-99.99,,,0.00,Acu-Link.com,2013-01-22 21:58:00,
2013-01-22 17:14:00,10.4,1.6,30.23,SSW,202,1.6,-999.0,67,-99.99,,,0.00,Acu-Link.com,2013-01-22 22:14:00,
2013-01-22 17:29:00,8.6,1.2,30.23,SSE,157,0.0,-999.0,71,-99.99,,,0.00,Acu-Link.com,2013-01-22 22:29:00,
2013-01-22 17:44:00,8.6,2.0,30.24,ESE,112,1.6,-999.0,74,-99.99,,,0.00,Acu-Link.com,2013-01-22 22:44:00,
2013-01-22 18:00:00,8.6,2.6,30.24,WSW,247,1.6,-999.0,76,-99.99,,,0.00,Acu-Link.com,2013-01-22 23:00:00,
2013-01-22 18:15:00,8.6,2.6,30.25,West,270,3.6,-999.0,76,-99.99,,,0.00,Acu-Link.com,2013-01-22 23:15:00,
2013-01-22 18:30:00,8.6,2.6,30.25,WSW,247,2.0,-999.0,76,-99.99,,,0.00,Acu-Link.com,2013-01-22 23:30:00,
2013-01-22 18:45:00,8.6,3.2,30.26,SE,135,1.6,-999.0,78,-99.99,,,0.00,Acu-Link.com,2013-01-22 23:45:00,
2013-01-22 19:01:00,6.8,1.7,30.26,SW,225,2.0,-999.0,79,-99.99,,,0.00,Acu-Link.com,2013-01-23 00:01:00,
2013-01-22 20:02:00,5.0,1.2,30.25,NNE,22,0.0,-999.0,84,-99.99,,,0.00,Acu-Link.com,2013-01-23 01:02:00,
2013-01-22 20:17:00,5.0,1.7,30.25,NW,315,0.0,-999.0,86,-99.99,,,0.00,Acu-Link.com,2013-01-23 01:17:00,
2013-01-22 20:48:00,5.0,1.2,30.25,WSW,247,2.0,-999.0,84,-99.99,,,0.00,Acu-Link.com,2013-01-23 01:48:00,
2013-01-22 21:03:00,5.0,0.7,30.25,WSW,247,1.1,-999.0,82,-99.99,,,0.00,Acu-Link.com,2013-01-23 02:03:00,
2013-01-22 21:18:00,5.0,0.7,30.25,West,270,2.7,-999.0,82,-99.99,,,0.00,Acu-Link.com,2013-01-23 02:18:00,
2013-01-22 21:33:00,6.8,2.0,30.25,NW,315,2.7,-999.0,80,-99.99,,,0.00,Acu-Link.com,2013-01-23 02:33:00,
2013-01-22 21:49:00,5.0,-0.1,30.24,SSE,157,4.7,-999.0,79,-99.99,,,0.00,Acu-Link.com,2013-01-23 02:49:00,
2013-01-22 22:04:00,6.8,1.4,30.25,SW,225,2.0,-999.0,78,-99.99,,,0.00,Acu-Link.com,2013-01-23 03:04:00,
2013-01-22 22:19:00,6.8,0.9,30.24,WNW,292,6.3,-999.0,76,-99.99,,,0.00,Acu-Link.com,2013-01-23 03:19:00,
2013-01-22 22:35:00,6.8,0.6,30.24,WNW,292,4.0,-999.0,75,-99.99,,,0.00,Acu-Link.com,2013-01-23 03:35:00,
2013-01-22 22:50:00,6.8,0.3,30.24,NNW,337,3.1,-999.0,74,-99.99,,,0.00,Acu-Link.com,2013-01-23 03:50:00,
2013-01-22 23:05:00,5.0,-2.0,30.24,West,270,2.7,-999.0,72,-99.99,,,0.00,Acu-Link.com,2013-01-23 04:05:00,
2013-01-22 23:20:00,5.0,-1.7,30.25,WSW,247,3.6,-999.0,73,-99.99,,,0.00,Acu-Link.com,2013-01-23 04:20:00,
2013-01-22 23:36:00,5.0,-1.4,30.25,West,270,1.6,-999.0,74,-99.99,,,0.00,Acu-Link.com,2013-01-23 04:36:00,
2013-01-22 23:51:00,5.0,-1.7,30.25,South,180,2.0,-999.0,73,-99.99,,,0.00,Acu-Link.com,2013-01-23 04:51:00,